Time;durP1;ratioP1;P1;durP2;ratioP2;P2;SDS_P1;SDS_P2;PMS_P1;PMS_P2;Temp;Humidity;BMP_temperature;BMP_pressure;BME280_temperature;BME280_humidity;BME280_pressure;Samples;Min_cycle;Max_cycle;Signal;HPM_P1;HPM_P2
2021/12/29 00:02:22;;;;;;;14.25;2.80;;;;;;;20.16;57.76;97668.63;7306656;19;158804;-38
2021/12/29 00:04:47;;;;;;;18.17;3.10;;;;;;;20.20;58.30;97670.72;7311854;19;137255;-35
2021/12/29 00:07:12;;;;;;;22.70;3.72;;;;;;;20.28;57.91;97667.22;7311965;19;129202;-41
2021/12/29 00:09:40;;;;;;;11.90;2.67;;;;;;;20.31;57.27;97656.44;7312650;19;129661;-39
2021/12/29 00:12:07;;;;;;;15.82;2.88;;;;;;;20.52;57.02;97673.00;7313485;19;130482;-35
2021/12/29 00:14:33;;;;;;;7.47;1.67;;;;;;;20.67;56.42;97680.84;7311631;19;129204;-36
2021/12/29 00:16:58;;;;;;;21.80;3.08;;;;;;;20.78;56.62;97675.16;7313001;19;129147;-37
2021/12/29 00:19:24;;;;;;;11.23;2.03;;;;;;;20.88;55.99;97677.50;7309208;19;142786;-39
2021/12/29 00:21:49;;;;;;;17.73;3.30;;;;;;;20.94;55.54;97672.34;7311316;19;158392;-34
2021/12/29 00:24:14;;;;;;;17.35;2.97;;;;;;;21.16;55.46;97681.91;7312446;19;129558;-34
2021/12/29 00:26:39;;;;;;;15.60;2.75;;;;;;;21.28;54.83;97679.63;7310805;19;153567;-36
2021/12/29 00:29:05;;;;;;;20.03;3.13;;;;;;;21.35;54.51;97678.72;7307770;19;158206;-32
2021/12/29 00:31:32;;;;;;;10.83;1.77;;;;;;;21.48;54.74;97680.66;7311020;19;158696;-37
2021/12/29 00:33:57;;;;;;;;;;;;;;;21.55;53.86;97687.56;7312782;19;128890;-36
2021/12/29 00:36:22;;;;;;;13.27;2.33;;;;;;;21.59;54.14;97693.25;7311950;19;138106;-32
2021/12/29 00:38:48;;;;;;;13.48;2.88;;;;;;;21.65;54.21;97695.91;7309559;19;130168;-38
2021/12/29 00:41:14;;;;;;;10.30;2.20;;;;;;;21.56;53.95;97696.22;7310728;19;129590;-38
2021/12/29 00:43:40;;;;;;;15.25;2.67;;;;;;;21.58;54.30;97697.69;7311449;19;129328;-32
2021/12/29 00:46:08;;;;;;;17.17;2.80;;;;;;;21.43;54.67;97696.09;7312210;19;140357;-37
2021/12/29 00:48:39;;;;;;;12.90;2.28;;;;;;;21.39;54.32;97698.25;7310100;19;129127;-37
2021/12/29 00:51:05;;;;;;;20.67;2.97;;;;;;;21.36;54.50;97708.28;7311572;19;130790;-37
2021/12/29 00:53:32;;;;;;;5.30;1.38;;;;;;;21.30;54.68;97711.63;7312727;19;129717;-33
2021/12/29 00:55:57;;;;;;;18.08;3.13;;;;;;;21.19;55.00;97712.91;7311612;19;129058;-36
2021/12/29 00:58:22;;;;;;;12.13;2.15;;;;;;;21.17;55.66;97707.03;7310197;19;129923;-39
2021/12/29 01:00:48;;;;;;;9.95;1.83;;;;;;;21.08;55.56;97692.47;7311046;19;148236;-38
2021/12/29 01:03:13;;;;;;;15.80;2.80;;;;;;;21.09;55.84;97707.13;7311735;19;129271;-38
2021/12/29 01:05:43;;;;;;;19.33;3.38;;;;;;;21.08;55.83;97715.97;7311318;19;129502;-35
2021/12/29 01:08:08;;;;;;;12.93;2.38;;;;;;;21.02;55.64;97724.56;7311282;19;130220;-33
2021/12/29 01:10:34;;;;;;;13.97;2.43;;;;;;;20.95;55.74;97718.41;7308808;19;159389;-38
2021/12/29 01:13:02;;;;;;;15.10;2.35;;;;;;;20.98;55.58;97727.69;7312914;19;129087;-35
2021/12/29 01:15:46;;;;;;;15.48;3.05;;;;;;;20.96;55.77;97729.66;7311143;19;130602;-36
2021/12/29 01:18:12;;;;;;;16.05;3.08;;;;;;;20.91;55.91;97742.44;7310367;19;130693;-39
2021/12/29 01:20:39;;;;;;;12.90;2.55;;;;;;;20.87;56.37;97747.22;7310968;19;130303;-36
2021/12/29 01:23:04;;;;;;;15.57;2.70;;;;;;;20.87;56.52;97742.00;7314355;19;129207;-38
2021/12/29 01:25:29;;;;;;;17.75;3.10;;;;;;;20.77;56.83;97726.56;7309974;19;154587;-38
2021/12/29 01:27:55;;;;;;;17.95;2.85;;;;;;;20.79;56.59;97739.47;7310911;19;130218;-39
2021/12/29 01:30:20;;;;;;;11.05;2.33;;;;;;;20.78;56.71;97735.22;7308288;19;158240;-36
2021/12/29 01:32:45;;;;;;;13.23;2.67;;;;;;;20.76;57.16;97731.97;7311963;19;129771;-35
2021/12/29 01:35:12;;;;;;;11.82;2.13;;;;;;;20.73;56.68;97734.94;7309395;19;154071;-34
2021/12/29 01:37:38;;;;;;;;;;;;;;;20.71;57.26;97739.53;7311002;19;129795;-34
2021/12/29 01:40:10;;;;;;;14.43;2.33;;;;;;;20.71;57.21;97742.16;7308979;19;130371;-36
2021/12/29 01:42:35;;;;;;;16.83;2.80;;;;;;;20.68;57.04;97748.56;7311910;19;129286;-34
2021/12/29 01:45:02;;;;;;;15.32;2.30;;;;;;;20.63;56.82;97750.88;7310546;19;129378;-38
2021/12/29 01:47:30;;;;;;;9.98;1.88;;;;;;;20.59;56.96;97754.03;7311098;19;131879;-32
2021/12/29 01:49:56;;;;;;;19.45;3.22;;;;;;;20.53;57.56;97746.91;7309822;19;130377;-40
2021/12/29 01:52:27;;;;;;;11.77;2.42;;;;;;;20.50;57.77;97742.03;7310219;19;131021;-39
2021/12/29 01:54:52;;;;;;;11.75;2.05;;;;;;;20.50;57.74;97739.41;7309545;19;128992;-40
2021/12/29 01:57:18;;;;;;;19.83;3.33;;;;;;;20.45;57.67;97752.19;7308601;19;130134;-40
2021/12/29 01:59:44;;;;;;;10.83;2.53;;;;;;;20.51;57.42;97757.50;7307064;19;130706;-37
2021/12/29 02:02:14;;;;;;;13.60;2.53;;;;;;;20.46;57.72;97759.06;7309921;19;129140;-38
2021/12/29 02:04:39;;;;;;;9.73;2.03;;;;;;;20.43;58.15;97756.78;7309247;19;129890;-37
2021/12/29 02:07:05;;;;;;;15.52;2.65;;;;;;;20.42;57.32;97768.22;7309397;19;136362;-38
2021/12/29 02:09:30;;;;;;;17.95;3.28;;;;;;;20.45;57.92;97778.28;7304684;19;129618;-38
2021/12/29 02:11:55;;;;;;;20.27;3.00;;;;;;;20.41;57.43;97777.03;7308656;19;154759;-39
2021/12/29 02:14:21;;;;;;;13.15;2.53;;;;;;;20.36;57.58;97774.16;7308262;19;130076;-39
2021/12/29 02:16:46;;;;;;;12.05;2.15;;;;;;;20.36;57.69;97769.72;7309931;19;130700;-39
2021/12/29 02:19:12;;;;;;;11.17;2.33;;;;;;;20.37;57.49;97776.56;7305091;19;152414;-37
2021/12/29 02:21:42;;;;;;;13.82;2.58;;;;;;;20.37;57.62;97783.59;7308976;19;130435;-37
2021/12/29 02:26:39;;;;;;;12.02;2.40;;;;;;;20.36;57.69;97780.16;7308757;19;129316;-37
2021/12/29 02:29:10;;;;;;;19.33;3.38;;;;;;;20.36;57.49;97789.81;7310636;19;130841;-37
2021/12/29 02:31:36;;;;;;;10.13;2.00;;;;;;;20.35;57.96;97793.38;7316097;19;129298;-39
2021/12/29 02:34:03;;;;;;;19.10;3.17;;;;;;;20.40;57.94;97806.72;7316719;19;129370;-36
2021/12/29 02:36:28;;;;;;;;;;;;;;;20.37;57.70;97796.63;7317083;19;130183;-37
2021/12/29 02:38:54;;;;;;;14.27;2.57;;;;;;;20.35;57.90;97801.22;7311277;19;159385;-37
2021/12/29 02:41:22;;;;;;;10.63;2.30;;;;;;;20.36;58.00;97800.25;7318360;19;130153;-37
2021/12/29 02:43:48;;;;;;;17.45;3.63;;;;;;;20.30;57.97;97795.69;7317554;19;129278;-41
2021/12/29 02:46:15;;;;;;;;;;;;;;;20.33;58.43;97795.34;7317222;19;130219;-39
2021/12/29 02:48:54;;;;;;;18.52;3.88;;;;;;;20.34;58.28;97797.00;7312882;19;130146;-38
2021/12/29 02:51:20;;;;;;;7.85;2.03;;;;;;;20.36;57.65;97806.25;7315267;19;129106;-39
2021/12/29 02:53:46;;;;;;;16.25;3.50;;;;;;;20.32;57.57;97794.56;7315670;19;129164;-40
2021/12/29 02:56:11;;;;;;;15.77;3.28;;;;;;;20.17;58.01;97798.09;7315239;19;129928;-39
2021/12/29 02:58:37;;;;;;;11.40;3.05;;;;;;;20.26;58.25;97804.88;7312769;19;130377;-37
2021/12/29 03:01:05;;;;;;;20.08;3.63;;;;;;;20.30;57.79;97808.75;7315161;19;128873;-31
2021/12/29 03:03:33;;;;;;;14.57;2.63;;;;;;;20.34;58.16;97810.03;7314777;19;129140;-38
2021/12/29 03:05:58;;;;;;;17.35;3.30;;;;;;;20.36;57.96;97811.47;7315261;19;129112;-30
2021/12/29 03:08:24;;;;;;;15.48;3.05;;;;;;;20.43;57.73;97814.19;7312971;19;131019;-32
2021/12/29 03:10:53;;;;;;;13.27;2.50;;;;;;;20.44;57.38;97808.78;7315288;19;130930;-36
2021/12/29 03:13:21;;;;;;;11.77;2.45;;;;;;;20.53;57.32;97812.16;7314990;19;129861;-32
2021/12/29 03:15:46;;;;;;;11.88;2.85;;;;;;;20.55;57.26;97815.41;7313864;19;130110;-31
2021/12/29 03:18:11;;;;;;;12.55;2.47;;;;;;;20.61;57.20;97825.13;7312111;19;159260;-39
2021/12/29 03:20:37;;;;;;;13.80;2.80;;;;;;;20.65;57.26;97837.69;7311511;19;154975;-33
2021/12/29 03:23:02;;;;;;;23.33;4.20;;;;;;;20.67;56.86;97840.13;7313545;19;154130;-32
2021/12/29 03:25:28;;;;;;;8.52;2.13;;;;;;;20.69;57.46;97838.94;7314104;19;130216;-36
2021/12/29 03:27:58;;;;;;;14.75;2.63;;;;;;;20.71;56.84;97836.16;7313518;19;129202;-38
2021/12/29 03:30:25;;;;;;;13.27;2.65;;;;;;;20.70;56.63;97847.59;7314327;19;131049;-38
2021/12/29 03:33:02;;;;;;;;;;;;;;;20.69;57.25;97838.94;7313167;19;130091;-35
2021/12/29 03:35:27;;;;;;;14.60;2.65;;;;;;;20.74;56.58;97848.88;7313993;19;129512;-37
2021/12/29 03:37:52;;;;;;;15.55;2.80;;;;;;;20.74;57.14;97851.50;7313540;19;129822;-34
2021/12/29 03:40:18;;;;;;;11.82;2.42;;;;;;;20.69;56.61;97848.59;7311720;19;154489;-35
2021/12/29 03:42:43;;;;;;;16.20;2.87;;;;;;;20.69;57.07;97848.59;7311926;19;154355;-30
2021/12/29 03:45:09;;;;;;;18.33;3.20;;;;;;;20.67;57.52;97845.34;7310427;19;158945;-34
2021/12/29 03:47:34;;;;;;;13.43;2.80;;;;;;;20.68;56.95;97854.78;7313384;19;130121;-39
2021/12/29 03:49:59;;;;;;;22.48;3.63;;;;;;;20.66;56.89;97854.97;7313323;19;130217;-38
2021/12/29 03:52:25;;;;;;;16.63;2.92;;;;;;;20.64;56.84;97864.75;7314097;19;129730;-32
2021/12/29 03:54:50;;;;;;;13.95;2.63;;;;;;;20.63;57.09;97864.94;7311735;19;155348;-40
2021/12/29 03:57:15;;;;;;;24.00;4.18;;;;;;;20.60;56.84;97871.34;7310220;19;134417;-34
2021/12/29 03:59:40;;;;;;;16.35;3.22;;;;;;;20.61;56.94;97878.19;7308941;19;153817;-35
2021/12/29 04:02:06;;;;;;;26.92;4.15;;;;;;;20.58;57.22;97877.72;7311461;19;153927;-32
2021/12/29 04:04:31;;;;;;;12.32;2.17;;;;;;;20.61;57.42;97874.75;7313138;19;129517;-37
2021/12/29 04:06:57;;;;;;;16.30;2.88;;;;;;;20.66;57.04;97875.03;7312952;19;129178;-37
2021/12/29 04:09:22;;;;;;;12.27;2.53;;;;;;;20.66;56.77;97885.47;7309128;19;154351;-32
2021/12/29 04:11:50;;;;;;;11.63;2.85;;;;;;;20.70;57.14;97886.75;7311646;19;154221;-32
2021/12/29 04:14:18;;;;;;;17.17;3.25;;;;;;;20.73;56.57;97892.47;7311235;19;129196;-33
2021/12/29 04:16:46;;;;;;;23.23;4.05;;;;;;;20.72;56.61;97898.66;7312643;19;129374;-32
2021/12/29 04:19:15;;;;;;;13.30;2.60;;;;;;;20.76;56.79;97900.94;7310411;19;128857;-37
2021/12/29 04:21:42;;;;;;;14.90;2.70;;;;;;;20.78;56.43;97904.97;7313022;19;128835;-31
2021/12/29 04:24:08;;;;;;;8.90;2.13;;;;;;;20.82;57.27;97910.66;7312403;19;129291;-33
2021/12/29 04:26:37;;;;;;;12.53;3.00;;;;;;;20.74;56.95;97906.34;7312909;19;130301;-35
2021/12/29 04:29:06;;;;;;;22.58;3.53;;;;;;;20.83;56.50;97917.50;7311166;19;129225;-30
2021/12/29 04:31:32;;;;;;;10.73;2.13;;;;;;;20.74;56.87;97908.94;7312230;19;129249;-35
2021/12/29 04:33:57;;;;;;;23.95;4.70;;;;;;;20.81;57.04;97920.28;7311005;19;129990;-31
2021/12/29 04:36:25;;;;;;;13.27;2.63;;;;;;;20.79;56.58;97932.75;7311004;19;159822;-32
2021/12/29 04:38:53;;;;;;;17.88;3.28;;;;;;;20.77;56.98;97934.72;7309331;19;128676;-35
2021/12/29 04:41:18;;;;;;;9.55;2.35;;;;;;;20.76;56.37;97933.06;7312880;19;129316;-35
2021/12/29 04:43:44;;;;;;;12.75;2.45;;;;;;;20.71;56.99;97940.59;7312436;19;129072;-43
2021/12/29 04:46:14;;;;;;;13.32;2.70;;;;;;;20.71;56.66;97943.22;7311258;19;130362;-39
2021/12/29 04:48:46;;;;;;;14.18;3.10;;;;;;;20.71;56.94;97941.44;7311658;19;129326;-29
2021/12/29 04:51:15;;;;;;;14.00;2.85;;;;;;;20.69;56.93;97959.06;7309059;19;130251;-31
2021/12/29 04:53:40;;;;;;;13.65;2.58;;;;;;;20.64;57.00;97956.16;7311213;19;129366;-37
2021/12/29 04:56:05;;;;;;;21.73;3.60;;;;;;;20.63;57.24;97964.16;7310143;19;159261;-31
2021/12/29 04:58:30;;;;;;;12.57;2.83;;;;;;;20.60;56.99;97969.75;7307394;19;153589;-35
2021/12/29 05:00:56;;;;;;;16.53;3.23;;;;;;;20.61;57.63;97969.56;7309756;19;154250;-39
2021/12/29 05:03:21;;;;;;;19.73;3.57;;;;;;;20.55;57.61;97977.28;7309868;19;159470;-39
2021/12/29 05:08:24;;;;;;;15.25;2.95;;;;;;;20.51;57.73;97971.56;7313298;19;129850;-35
2021/12/29 05:08:41;;;;;;;14.32;2.83;;;;;;;20.44;57.44;97978.47;7311715;19;130365;-36
2021/12/29 05:11:11;;;;;;;12.77;2.33;;;;;;;20.45;58.04;97985.31;7310275;19;129142;-39
2021/12/29 05:13:39;;;;;;;18.42;3.42;;;;;;;20.38;57.66;97992.22;7310675;19;129560;-39
2021/12/29 05:16:05;;;;;;;15.00;2.72;;;;;;;20.36;58.27;97988.16;7309797;19;130377;-39
2021/12/29 05:18:32;;;;;;;14.23;2.77;;;;;;;20.34;57.65;97997.94;7309175;19;128944;-36
2021/12/29 05:20:59;;;;;;;19.45;3.35;;;;;;;20.33;57.98;98001.53;7311288;19;128712;-31
2021/12/29 05:23:25;;;;;;;14.30;2.58;;;;;;;20.29;58.08;98005.47;7309658;19;131596;-39
2021/12/29 05:25:52;;;;;;;10.25;2.42;;;;;;;20.22;58.62;97991.47;7308954;19;129370;-33
2021/12/29 05:28:18;;;;;;;14.07;3.20;;;;;;;20.31;58.26;97991.25;7310842;19;129179;-39
2021/12/29 05:30:46;;;;;;;11.80;2.37;;;;;;;20.29;57.76;98000.25;7312178;19;129177;-33
2021/12/29 05:33:11;;;;;;;14.38;2.58;;;;;;;20.28;58.44;98001.25;7310442;19;129209;-39
2021/12/29 05:35:36;;;;;;;21.60;3.83;;;;;;;20.28;58.04;98009.06;7310668;19;157316;-35
2021/12/29 05:38:02;;;;;;;12.10;2.07;;;;;;;20.28;57.81;98014.28;7307432;19;154929;-36
2021/12/29 05:40:28;;;;;;;10.45;2.42;;;;;;;20.30;58.16;98017.53;7308938;19;129235;-34
2021/12/29 05:42:54;;;;;;;9.32;1.92;;;;;;;20.30;58.08;98020.97;7311318;19;130308;-38
2021/12/29 05:45:19;;;;;;;13.75;2.47;;;;;;;20.25;58.52;98023.25;7310003;19;131563;-36
2021/12/29 05:47:45;;;;;;;16.63;3.25;;;;;;;20.17;58.18;98015.47;7309099;19;140373;-38
2021/12/29 05:50:15;;;;;;;9.47;2.47;;;;;;;20.29;58.31;98028.97;7309621;19;129205;-38
2021/12/29 05:52:40;;;;;;;15.63;3.05;;;;;;;20.33;58.51;98035.44;7310849;19;129787;-37
2021/12/29 05:55:06;;;;;;;16.38;3.38;;;;;;;20.35;58.42;98033.50;7310325;19;130102;-38
2021/12/29 05:57:32;;;;;;;9.85;2.08;;;;;;;20.37;57.45;98036.75;7310644;19;129076;-37
2021/12/29 05:59:57;;;;;;;17.08;2.88;;;;;;;20.40;57.48;98042.44;7308783;19;129311;-37
2021/12/29 06:02:23;;;;;;;12.07;2.38;;;;;;;20.47;57.97;98047.81;7312209;19;158336;-33
2021/12/29 06:04:48;;;;;;;14.55;2.67;;;;;;;20.48;57.24;98041.59;7322243;19;158819;-40
2021/12/29 06:07:13;;;;;;;13.52;2.40;;;;;;;20.53;57.12;98047.13;7324321;19;130645;-38
2021/12/29 06:09:40;;;;;;;16.42;3.08;;;;;;;20.57;56.98;98049.22;7321758;19;131295;-39
2021/12/29 06:12:05;;;;;;;16.70;3.07;;;;;;;20.60;57.73;98058.50;7323988;19;129246;-38
2021/12/29 06:14:31;;;;;;;10.82;2.40;;;;;;;20.64;57.52;98055.38;7322677;19;132109;-38
2021/12/29 06:16:56;;;;;;;14.90;2.53;;;;;;;20.60;57.25;98053.28;7322906;19;143021;-39
2021/12/29 06:19:21;;;;;;;13.15;2.47;;;;;;;20.68;56.68;98066.28;7321519;19;129485;-33
2021/12/29 06:21:46;;;;;;;13.07;2.37;;;;;;;20.73;56.59;98061.38;7321913;19;158439;-36
2021/12/29 06:24:12;;;;;;;17.10;3.17;;;;;;;20.75;56.78;98072.47;7320205;19;158498;-34
2021/12/29 06:26:37;;;;;;;8.48;1.98;;;;;;;20.77;57.05;98070.50;7323521;19;129416;-34
2021/12/29 06:29:02;;;;;;;16.90;3.03;;;;;;;20.81;56.37;98074.38;7321138;19;129418;-40
2021/12/29 06:31:28;;;;;;;12.55;2.20;;;;;;;20.81;56.78;98082.22;7323546;19;129198;-37
2021/12/29 06:33:53;;;;;;;21.25;4.38;;;;;;;20.79;56.94;98079.00;7322879;19;151258;-36
2021/12/29 06:36:18;;;;;;;4.15;1.40;;;;;;;20.83;56.88;98082.88;7323664;19;129369;-38
2021/12/29 06:38:44;;;;;;;11.82;2.58;;;;;;;20.83;56.90;98095.94;7320512;19;129187;-38
2021/12/29 06:41:09;;;;;;;15.52;3.22;;;;;;;20.82;56.98;98086.47;7322007;19;159187;-40
2021/12/29 06:43:34;;;;;;;13.15;2.65;;;;;;;20.85;56.19;98098.38;7320842;19;158751;-39
2021/12/29 06:46:00;;;;;;;22.33;3.63;;;;;;;20.81;56.84;98103.13;7322213;19;129367;-37
2021/12/29 06:48:25;;;;;;;13.13;2.63;;;;;;;20.81;56.67;98105.72;7319898;19;132817;-39
2021/12/29 06:50:50;;;;;;;23.15;4.25;;;;;;;20.79;57.21;98110.34;7319187;19;130571;-40
2021/12/29 06:53:15;;;;;;;14.73;2.80;;;;;;;20.78;56.75;98121.75;7321456;19;130927;-39
2021/12/29 06:55:43;;;;;;;12.10;2.63;;;;;;;20.75;56.68;98137.75;7320561;19;154852;-38
2021/12/29 06:58:09;;;;;;;24.83;4.20;;;;;;;20.75;56.59;98129.94;7316728;19;130210;-38
2021/12/29 07:00:35;;;;;;;12.73;2.60;;;;;;;20.75;57.17;98132.53;7320247;19;130904;-39
2021/12/29 07:03:01;;;;;;;17.58;2.92;;;;;;;20.73;56.60;98142.34;7320668;19;141874;-38
2021/12/29 07:05:26;;;;;;;13.82;2.60;;;;;;;20.71;56.93;98146.91;7321146;19;129170;-39
2021/12/29 07:07:52;;;;;;;16.42;3.20;;;;;;;20.66;57.31;98146.59;7318811;19;144033;-38
2021/12/29 07:10:18;;;;;;;21.13;3.40;;;;;;;20.66;57.59;98151.81;7320897;19;130169;-37
2021/12/29 07:12:43;;;;;;;13.82;2.65;;;;;;;20.66;57.28;98154.44;7322854;19;129653;-41
2021/12/29 07:15:08;;;;;;;14.05;2.65;;;;;;;20.64;57.59;98164.25;7312948;19;154599;-37
2021/12/29 07:17:34;;;;;;;14.15;2.45;;;;;;;20.61;57.58;98165.38;7312797;19;130100;-39
2021/12/29 07:19:59;;;;;;;16.88;2.92;;;;;;;20.59;57.59;98169.16;7312196;19;129252;-39
2021/12/29 07:22:25;;;;;;;14.02;2.65;;;;;;;20.55;57.27;98170.47;7313764;19;131102;-39
2021/12/29 07:24:50;;;;;;;21.02;3.50;;;;;;;20.54;57.11;98171.47;7313731;19;129606;-38
2021/12/29 07:27:15;;;;;;;17.33;3.20;;;;;;;20.53;57.59;98172.44;7311015;19;130509;-39
2021/12/29 07:29:42;;;;;;;16.42;3.00;;;;;;;20.49;57.30;98171.16;7311389;19;159390;-43
2021/12/29 07:32:08;;;;;;;19.00;3.17;;;;;;;20.51;57.60;98182.25;7313962;19;130405;-40
2021/12/29 07:34:34;;;;;;;9.55;2.33;;;;;;;20.49;57.67;98181.59;7312484;19;128920;-42
2021/12/29 07:36:59;;;;;;;12.90;2.28;;;;;;;20.44;57.73;98178.66;7312467;19;128957;-41
2021/12/29 07:39:25;;;;;;;13.27;2.50;;;;;;;20.39;58.18;98186.19;7311253;19;129907;-41
2021/12/29 07:41:51;;;;;;;16.52;2.75;;;;;;;20.41;57.78;98194.66;7312160;19;129582;-41
2021/12/29 07:44:17;;;;;;;21.65;4.00;;;;;;;20.41;57.55;98200.69;7312665;19;128930;-41
2021/12/29 07:46:45;;;;;;;16.35;3.22;;;;;;;20.42;57.60;98206.72;7313314;19;129123;-37
2021/12/29 07:49:11;;;;;;;13.80;3.10;;;;;;;20.38;57.95;98208.03;7310102;19;130200;-40
2021/12/29 07:51:37;;;;;;;15.48;3.00;;;;;;;20.38;58.40;98210.63;7312928;19;130416;-38
2021/12/29 07:54:05;;;;;;;18.80;3.20;;;;;;;20.35;58.31;98205.75;7310895;19;149860;-40
2021/12/29 07:56:30;;;;;;;17.63;3.03;;;;;;;20.34;57.76;98214.56;7312914;19;129019;-38
2021/12/29 07:58:55;;;;;;;22.05;3.67;;;;;;;20.29;58.51;98219.47;7307915;19;159921;-42
2021/12/29 08:01:23;;;;;;;11.25;2.40;;;;;;;20.29;58.45;98214.25;7310603;19;158424;-38
2021/12/29 08:03:48;;;;;;;20.80;4.07;;;;;;;20.27;57.99;98208.38;7311978;19;130406;-41
2021/12/29 08:06:16;;;;;;;19.45;3.55;;;;;;;20.24;58.16;98211.31;7311707;19;130606;-40
2021/12/29 08:08:41;;;;;;;11.57;2.63;;;;;;;20.25;58.59;98221.59;7310437;19;129905;-39
2021/12/29 08:11:06;;;;;;;17.02;2.92;;;;;;;20.27;58.26;98224.03;7312045;19;129528;-39
2021/12/29 08:13:31;;;;;;;10.40;2.38;;;;;;;20.26;58.62;98228.41;7310669;19;154456;-36
2021/12/29 08:15:57;;;;;;;20.27;3.20;;;;;;;20.26;58.55;98225.81;7310332;19;154321;-40
2021/12/29 08:18:22;;;;;;;12.52;2.47;;;;;;;20.29;58.02;98240.34;7309032;19;135055;-41
2021/12/29 08:20:47;;;;;;;13.23;2.40;;;;;;;20.35;57.62;98242.28;7308944;19;145628;-41
2021/12/29 08:23:12;;;;;;;18.20;3.63;;;;;;;20.38;58.33;98241.94;7311856;19;129313;-40
2021/12/29 08:25:39;;;;;;;21.27;3.50;;;;;;;20.42;58.07;98248.50;7308036;19;143738;-40
2021/12/29 08:28:05;;;;;;;25.00;4.90;;;;;;;20.44;58.18;98242.09;7307906;19;130057;-41
2021/12/29 08:30:32;;;;;;;12.83;2.50;;;;;;;20.49;56.98;98252.06;7310840;19;129284;-39
2021/12/29 08:32:58;;;;;;;19.50;3.42;;;;;;;20.57;57.38;98252.06;7311273;19;130090;-41
2021/12/29 08:35:23;;;;;;;10.68;2.47;;;;;;;20.60;57.14;98256.94;7309281;19;154023;-40
2021/12/29 08:37:49;;;;;;;10.55;2.30;;;;;;;20.58;56.96;98256.28;7310932;19;130494;-39
2021/12/29 08:40:16;;;;;;;14.80;2.63;;;;;;;20.64;57.00;98253.03;7309153;19;131152;-40
2021/12/29 08:42:42;;;;;;;18.77;3.37;;;;;;;20.59;57.03;98243.06;7310282;19;129721;-39
2021/12/29 08:45:10;;;;;;;23.70;4.10;;;;;;;20.72;56.98;98266.06;7310621;19;128882;-38
2021/12/29 08:47:35;;;;;;;12.63;2.55;;;;;;;20.77;56.87;98272.41;7311564;19;132596;-40
2021/12/29 08:50:01;;;;;;;19.50;3.35;;;;;;;20.79;56.76;98271.44;7308300;19;130935;-38
2021/12/29 08:52:27;;;;;;;12.27;2.30;;;;;;;20.79;56.57;98277.50;7311275;19;129055;-38
2021/12/29 08:54:52;;;;;;;15.90;2.83;;;;;;;20.82;56.64;98282.38;7311726;19;129173;-37
2021/12/29 08:57:18;;;;;;;16.90;3.33;;;;;;;20.82;57.07;98290.22;7309781;19;159454;-40
2021/12/29 08:59:43;;;;;;;13.20;2.92;;;;;;;20.84;56.52;98290.84;7310170;19;129629;-36
2021/12/29 09:02:08;;;;;;;16.08;3.10;;;;;;;20.84;56.25;98296.06;7312888;19;129198;-39
2021/12/29 09:04:34;;;;;;;15.32;2.80;;;;;;;20.86;56.62;98294.13;7311781;19;129252;-38
2021/12/29 09:06:59;;;;;;;22.50;3.72;;;;;;;20.78;56.13;98286.28;7312105;19;138502;-38
2021/12/29 09:09:24;;;;;;;13.45;2.55;;;;;;;20.83;56.46;98304.06;7307497;19;160367;-38
2021/12/29 09:11:50;;;;;;;8.27;1.80;;;;;;;20.85;56.82;98313.38;7312312;19;154857;-39
2021/12/29 09:14:16;;;;;;;20.53;3.57;;;;;;;20.82;56.98;98313.72;7309501;19;130307;-37
2021/12/29 09:16:43;;;;;;;17.88;3.75;;;;;;;20.79;56.69;98308.84;7310933;19;129574;-36
2021/12/29 09:19:12;;;;;;;23.63;3.90;;;;;;;20.84;56.89;98316.97;7307503;19;130932;-37
2021/12/29 09:21:42;;;;;;;15.90;3.15;;;;;;;20.81;56.47;98314.69;7312839;19;129114;-38
2021/12/29 09:24:07;;;;;;;20.25;3.45;;;;;;;20.81;56.73;98317.31;7313599;19;129692;-38
2021/12/29 09:26:32;;;;;;;8.85;2.05;;;;;;;20.77;56.69;98324.66;7311354;19;158130;-38
2021/12/29 09:28:58;;;;;;;17.60;2.90;;;;;;;20.79;56.75;98337.56;7309914;19;129354;-39
2021/12/29 09:31:24;;;;;;;14.57;2.60;;;;;;;20.76;57.10;98337.88;7312442;19;129866;-37
2021/12/29 09:33:50;;;;;;;16.73;3.17;;;;;;;20.74;57.02;98334.63;7310553;19;130908;-39
2021/12/29 09:36:16;;;;;;;22.40;4.13;;;;;;;20.75;56.82;98344.09;7311787;19;130381;-37
2021/12/29 09:38:42;;;;;;;10.27;2.42;;;;;;;20.63;56.97;98324.50;7309333;19;130355;-39
2021/12/29 09:41:13;;;;;;;17.43;3.07;;;;;;;20.67;56.71;98341.50;7309731;19;129825;-33
2021/12/29 09:43:40;;;;;;;11.95;2.42;;;;;;;20.64;57.01;98349.66;7309930;19;129750;-34
2021/12/29 09:46:06;;;;;;;26.08;3.90;;;;;;;20.54;56.91;98333.34;7308142;19;130343;-36
2021/12/29 09:48:32;;;;;;;14.80;3.10;;;;;;;20.64;56.84;98357.50;7306708;19;131015;-38
2021/12/29 09:50:58;;;;;;;24.05;3.15;;;;;;;20.65;57.00;98359.09;7309631;19;129031;-40
2021/12/29 09:53:24;;;;;;;16.10;3.20;;;;;;;20.50;57.20;98334.63;7307484;19;129163;-39
2021/12/29 09:55:49;;;;;;;15.45;2.72;;;;;;;20.57;57.70;98353.91;7306572;19;144750;-38
2021/12/29 09:58:16;;;;;;;22.52;4.03;;;;;;;20.56;57.43;98349.66;7304720;19;129626;-38
2021/12/29 10:00:45;;;;;;;12.75;2.58;;;;;;;20.53;57.66;98344.75;7306256;19;129786;-39
2021/12/29 10:03:14;;;;;;;18.15;3.55;;;;;;;20.49;57.43;98351.28;7308517;19;129472;-37
2021/12/29 10:05:41;;;;;;;16.08;3.10;;;;;;;20.38;57.80;98325.47;7308327;19;131216;-38
2021/12/29 10:08:14;;;;;;;21.35;3.45;;;;;;;20.47;57.77;98345.41;7307581;19;129242;-37
2021/12/29 10:10:47;;;;;;;13.02;2.63;;;;;;;20.41;57.84;98346.84;7308287;19;129216;-39
2021/12/29 10:13:12;;;;;;;23.27;4.32;;;;;;;20.41;57.66;98353.91;7307465;19;130800;-39
2021/12/29 10:16:00;;;;;;;16.23;3.40;;;;;;;20.39;58.32;98346.22;7308017;19;133353;-39
2021/12/29 10:18:28;;;;;;;13.35;2.55;;;;;;;20.38;58.27;98351.56;7307004;19;131027;-37
2021/12/29 10:21:00;;;;;;;13.88;2.47;;;;;;;20.38;58.10;98351.56;7306393;19;129462;-36
2021/12/29 10:23:29;;;;;;;16.60;3.22;;;;;;;20.38;57.80;98341.97;7309261;19;130226;-39
2021/12/29 10:25:56;;;;;;;15.63;2.72;;;;;;;20.37;58.20;98334.31;7308909;19;130886;-38
2021/12/29 10:28:22;;;;;;;;;;;;;;;20.35;58.45;98336.25;7307939;19;129332;-31
2021/12/29 10:30:59;;;;;;;16.60;3.15;;;;;;;20.40;57.99;98344.41;7307443;19;129223;-33
2021/12/29 10:33:25;;;;;;;12.70;2.40;;;;;;;20.38;57.75;98351.56;7308964;19;128991;-40
2021/12/29 10:35:50;;;;;;;12.02;2.22;;;;;;;20.38;58.17;98355.03;7308229;19;130339;-33
2021/12/29 10:38:19;;;;;;;18.60;3.33;;;;;;;20.40;57.59;98350.47;7304927;19;152137;-36
2021/12/29 10:40:45;;;;;;;8.98;2.60;;;;;;;20.38;57.92;98347.19;7307415;19;131193;-36
2021/12/29 10:43:11;;;;;;;20.13;3.40;;;;;;;20.40;57.66;98354.84;7308399;19;129010;-34
2021/12/29 10:45:40;;;;;;;14.68;3.13;;;;;;;20.41;57.88;98348.66;7306899;19;129810;-35
2021/12/29 10:48:19;;;;;;;18.00;3.45;;;;;;;20.35;58.46;98346.69;7305634;19;130031;-34
2021/12/29 10:50:55;;;;;;;15.70;2.95;;;;;;;20.36;57.80;98348.34;7313664;19;129140;-39
2021/12/29 10:53:21;;;;;;;16.65;2.72;;;;;;;20.33;57.51;98340.81;7315441;19;129442;-32
2021/12/29 10:55:46;;;;;;;11.05;2.67;;;;;;;20.43;58.07;98357.97;7313250;19;129813;-37
2021/12/29 10:58:15;;;;;;;12.82;2.60;;;;;;;20.44;57.61;98361.41;7312161;19;129652;-39
2021/12/29 11:00:44;;;;;;;13.07;2.90;;;;;;;20.26;57.81;98334.63;7312090;19;130139;-40
2021/12/29 11:03:19;;;;;;;16.25;3.10;;;;;;;20.40;58.56;98360.91;7314050;19;129711;-39
2021/12/29 11:05:47;;;;;;;16.08;3.25;;;;;;;20.45;57.77;98357.78;7313988;19;130076;-37
2021/12/29 11:08:13;;;;;;;15.20;2.90;;;;;;;20.48;57.79;98357.47;7310567;19;129836;-37
2021/12/29 11:10:39;;;;;;;18.48;3.42;;;;;;;20.45;58.21;98357.78;7314513;19;128916;-37
2021/12/29 11:13:05;;;;;;;19.88;2.97;;;;;;;20.48;57.71;98357.47;7315236;19;129724;-40
2021/12/29 11:15:41;;;;;;;5.85;1.48;;;;;;;20.51;57.39;98367.59;7313460;19;129478;-39
2021/12/29 11:18:10;;;;;;;17.45;3.22;;;;;;;20.46;58.33;98359.44;7311800;19;130924;-39
2021/12/29 11:20:37;;;;;;;5.07;1.70;;;;;;;20.48;57.31;98367.91;7312845;19;128916;-39